sensor_id;sensor_type;location;lat;lon;timestamp;pressure;altitude;pressure_sealevel;temperature;humidity
66887;BME280;53798;51.680;5.976;2022-07-11T00:00:10;102271.44;;;16.95;75.94
66887;BME280;53798;51.680;5.976;2022-07-11T00:02:39;102280.22;;;16.99;75.64
66887;BME280;53798;51.680;5.976;2022-07-11T00:05:10;102273.00;;;17.02;75.26
66887;BME280;53798;51.680;5.976;2022-07-11T00:07:37;102275.50;;;17.07;75.61
66887;BME280;53798;51.680;5.976;2022-07-11T00:10:07;102271.78;;;17.11;75.51
66887;BME280;53798;51.680;5.976;2022-07-11T00:12:35;102272.59;;;17.13;75.08
66887;BME280;53798;51.680;5.976;2022-07-11T00:15:02;102273.34;;;17.17;75.10
66887;BME280;53798;51.680;5.976;2022-07-11T00:17:30;102277.66;;;17.21;74.98
66887;BME280;53798;51.680;5.976;2022-07-11T00:19:57;102270.44;;;17.25;74.85
66887;BME280;53798;51.680;5.976;2022-07-11T00:22:25;102269.41;;;17.29;74.80
66887;BME280;53798;51.680;5.976;2022-07-11T00:24:52;102272.81;;;17.32;74.65
66887;BME280;53798;51.680;5.976;2022-07-11T00:27:19;102263.78;;;17.36;74.66
66887;BME280;53798;51.680;5.976;2022-07-11T00:29:46;102259.34;;;17.37;74.58
66887;BME280;53798;51.680;5.976;2022-07-11T00:32:13;102261.88;;;17.40;74.64
66887;BME280;53798;51.680;5.976;2022-07-11T00:34:40;102258.28;;;17.41;74.58
66887;BME280;53798;51.680;5.976;2022-07-11T00:37:07;102252.03;;;17.42;74.68
66887;BME280;53798;51.680;5.976;2022-07-11T00:39:34;102250.19;;;17.44;74.57
66887;BME280;53798;51.680;5.976;2022-07-11T00:42:02;102260.84;;;17.44;74.40
66887;BME280;53798;51.680;5.976;2022-07-11T00:44:29;102259.97;;;17.44;74.21
66887;BME280;53798;51.680;5.976;2022-07-11T00:46:56;102254.69;;;17.42;74.25
66887;BME280;53798;51.680;5.976;2022-07-11T00:49:23;102257.34;;;17.42;74.39
66887;BME280;53798;51.680;5.976;2022-07-11T00:51:51;102258.25;;;17.43;74.35
66887;BME280;53798;51.680;5.976;2022-07-11T00:54:18;102260.00;;;17.42;74.25
66887;BME280;53798;51.680;5.976;2022-07-11T00:56:50;102259.09;;;17.43;74.06
66887;BME280;53798;51.680;5.976;2022-07-11T00:59:17;102259.16;;;17.42;74.00
66887;BME280;53798;51.680;5.976;2022-07-11T01:01:46;102254.66;;;17.44;74.11
66887;BME280;53798;51.680;5.976;2022-07-11T01:04:13;102260.84;;;17.44;74.05
66887;BME280;53798;51.680;5.976;2022-07-11T01:06:41;102256.38;;;17.45;74.06
66887;BME280;53798;51.680;5.976;2022-07-11T01:09:08;102249.19;;;17.47;74.04
66887;BME280;53798;51.680;5.976;2022-07-11T01:11:36;102245.59;;;17.48;74.06
66887;BME280;53798;51.680;5.976;2022-07-11T01:14:03;102253.41;;;17.52;73.92
66887;BME280;53798;51.680;5.976;2022-07-11T01:16:30;102247.16;;;17.53;73.77
66887;BME280;53798;51.680;5.976;2022-07-11T01:18:57;102246.25;;;17.54;74.36
66887;BME280;53798;51.680;5.976;2022-07-11T01:21:31;102244.50;;;17.53;73.93
66887;BME280;53798;51.680;5.976;2022-07-11T01:24:07;102242.75;;;17.52;73.87
66887;BME280;53798;51.680;5.976;2022-07-11T01:26:35;102242.75;;;17.52;73.94
66887;BME280;53798;51.680;5.976;2022-07-11T01:29:08;102243.63;;;17.53;73.67
66887;BME280;53798;51.680;5.976;2022-07-11T01:31:40;102246.31;;;17.53;73.91
66887;BME280;53798;51.680;5.976;2022-07-11T01:34:10;102241.75;;;17.55;73.99
66887;BME280;53798;51.680;5.976;2022-07-11T01:36:42;102245.31;;;17.56;73.89
66887;BME280;53798;51.680;5.976;2022-07-11T01:39:09;102236.56;;;17.52;73.92
66887;BME280;53798;51.680;5.976;2022-07-11T01:41:36;102237.56;;;17.49;73.91
66887;BME280;53798;51.680;5.976;2022-07-11T01:44:03;102243.84;;;17.47;73.66
66887;BME280;53798;51.680;5.976;2022-07-11T01:46:31;102235.06;;;17.45;74.02
66887;BME280;53798;51.680;5.976;2022-07-11T01:48:58;102241.19;;;17.47;73.48
66887;BME280;53798;51.680;5.976;2022-07-11T01:51:25;102237.56;;;17.49;73.36
66887;BME280;53798;51.680;5.976;2022-07-11T01:53:54;102242.19;;;17.44;73.07
66887;BME280;53798;51.680;5.976;2022-07-11T01:56:22;102244.91;;;17.43;73.54
66887;BME280;53798;51.680;5.976;2022-07-11T01:58:59;102247.50;;;17.44;73.69
66887;BME280;53798;51.680;5.976;2022-07-11T02:01:26;102245.66;;;17.46;73.62
66887;BME280;53798;51.680;5.976;2022-07-11T02:03:54;102253.56;;;17.49;73.94
66887;BME280;53798;51.680;5.976;2022-07-11T02:06:22;102253.56;;;17.49;73.90
66887;BME280;53798;51.680;5.976;2022-07-11T02:08:49;102246.47;;;17.48;73.79
66887;BME280;53798;51.680;5.976;2022-07-11T02:11:16;102244.78;;;17.46;74.09
66887;BME280;53798;51.680;5.976;2022-07-11T02:13:43;102243.00;;;17.46;73.83
66887;BME280;53798;51.680;5.976;2022-07-11T02:16:11;102247.41;;;17.47;74.01
66887;BME280;53798;51.680;5.976;2022-07-11T02:18:38;102250.88;;;17.49;73.76
66887;BME280;53798;51.680;5.976;2022-07-11T02:21:06;102243.84;;;17.47;73.89
66887;BME280;53798;51.680;5.976;2022-07-11T02:23:33;102246.50;;;17.47;73.73
66887;BME280;53798;51.680;5.976;2022-07-11T02:26:00;102248.41;;;17.45;73.75
66887;BME280;53798;51.680;5.976;2022-07-11T02:28:27;102242.06;;;17.47;73.78
66887;BME280;53798;51.680;5.976;2022-07-11T02:30:54;102239.34;;;17.49;73.76
66887;BME280;53798;51.680;5.976;2022-07-11T02:33:21;102249.19;;;17.47;73.90
66887;BME280;53798;51.680;5.976;2022-07-11T02:35:49;102253.56;;;17.49;74.09
66887;BME280;53798;51.680;5.976;2022-07-11T02:38:17;102243.81;;;17.48;74.22
66887;BME280;53798;51.680;5.976;2022-07-11T02:40:44;102242.06;;;17.47;74.42
66887;BME280;53798;51.680;5.976;2022-07-11T02:43:12;102245.56;;;17.49;74.54
66887;BME280;53798;51.680;5.976;2022-07-11T02:45:40;102247.34;;;17.49;74.47
66887;BME280;53798;51.680;5.976;2022-07-11T02:48:08;102242.88;;;17.49;74.53
66887;BME280;53798;51.680;5.976;2022-07-11T02:50:35;102247.44;;;17.46;74.58
66887;BME280;53798;51.680;5.976;2022-07-11T02:53:02;102235.16;;;17.42;74.55
66887;BME280;53798;51.680;5.976;2022-07-11T02:55:29;102230.84;;;17.39;74.77
66887;BME280;53798;51.680;5.976;2022-07-11T02:57:57;102238.81;;;17.39;74.77
66887;BME280;53798;51.680;5.976;2022-07-11T03:00:25;102234.47;;;17.36;74.82
66887;BME280;53798;51.680;5.976;2022-07-11T03:02:52;102240.66;;;17.37;74.94
66887;BME280;53798;51.680;5.976;2022-07-11T03:05:20;102242.28;;;17.41;74.91
66887;BME280;53798;51.680;5.976;2022-07-11T03:07:47;102238.75;;;17.41;74.63
66887;BME280;53798;51.680;5.976;2022-07-11T03:10:14;102241.50;;;17.39;74.67
66887;BME280;53798;51.680;5.976;2022-07-11T03:12:42;102237.00;;;17.39;74.73
66887;BME280;53798;51.680;5.976;2022-07-11T03:15:10;102251.34;;;17.37;74.68
66887;BME280;53798;51.680;5.976;2022-07-11T03:17:38;102236.34;;;17.34;74.70
66887;BME280;53798;51.680;5.976;2022-07-11T03:20:05;102241.59;;;17.36;74.35
66887;BME280;53798;51.680;5.976;2022-07-11T03:22:34;102246.09;;;17.34;74.45
66887;BME280;53798;51.680;5.976;2022-07-11T03:25:03;102242.63;;;17.32;74.59
66887;BME280;53798;51.680;5.976;2022-07-11T03:27:33;102242.63;;;17.32;74.51
66887;BME280;53798;51.680;5.976;2022-07-11T03:30:02;102241.75;;;17.31;74.61
66887;BME280;53798;51.680;5.976;2022-07-11T03:32:30;102248.78;;;17.34;74.49
66887;BME280;53798;51.680;5.976;2022-07-11T03:34:57;102251.44;;;17.34;74.57
66887;BME280;53798;51.680;5.976;2022-07-11T03:37:43;102253.94;;;17.38;74.67
66887;BME280;53798;51.680;5.976;2022-07-11T03:40:11;102253.94;;;17.38;74.67
66887;BME280;53798;51.680;5.976;2022-07-11T03:42:38;102256.53;;;17.40;74.71
66887;BME280;53798;51.680;5.976;2022-07-11T03:45:06;102262.81;;;17.39;74.65
66887;BME280;53798;51.680;5.976;2022-07-11T03:47:34;102260.16;;;17.39;74.58
66887;BME280;53798;51.680;5.976;2022-07-11T03:50:03;102250.34;;;17.39;74.39
66887;BME280;53798;51.680;5.976;2022-07-11T03:52:31;102253.13;;;17.36;74.68
66887;BME280;53798;51.680;5.976;2022-07-11T03:54:59;102251.38;;;17.35;74.62
66887;BME280;53798;51.680;5.976;2022-07-11T03:57:26;102253.19;;;17.35;74.80
66887;BME280;53798;51.680;5.976;2022-07-11T03:59:53;102258.44;;;17.36;74.90
66887;BME280;53798;51.680;5.976;2022-07-11T04:02:20;102248.66;;;17.37;74.85
66887;BME280;53798;51.680;5.976;2022-07-11T04:04:47;102249.50;;;17.39;74.92
66887;BME280;53798;51.680;5.976;2022-07-11T04:07:14;102249.41;;;17.41;74.87
66887;BME280;53798;51.680;5.976;2022-07-11T04:09:42;102251.25;;;17.38;74.91
66887;BME280;53798;51.680;5.976;2022-07-11T04:12:09;102254.75;;;17.41;74.86
66887;BME280;53798;51.680;5.976;2022-07-11T04:14:36;102257.53;;;17.37;75.02
66887;BME280;53798;51.680;5.976;2022-07-11T04:17:03;102253.88;;;17.40;74.97
66887;BME280;53798;51.680;5.976;2022-07-11T04:19:31;102259.16;;;17.42;75.03
66887;BME280;53798;51.680;5.976;2022-07-11T04:21:58;102257.34;;;17.42;75.27
66887;BME280;53798;51.680;5.976;2022-07-11T04:24:25;102253.00;;;17.39;75.38
66887;BME280;53798;51.680;5.976;2022-07-11T04:26:53;102265.50;;;17.37;75.72
66887;BME280;53798;51.680;5.976;2022-07-11T04:29:20;102256.75;;;17.34;75.79
66887;BME280;53798;51.680;5.976;2022-07-11T04:31:47;102257.75;;;17.31;75.97
66887;BME280;53798;51.680;5.976;2022-07-11T04:34:14;102268.41;;;17.31;76.24
66887;BME280;53798;51.680;5.976;2022-07-11T04:36:41;102256.84;;;17.32;76.60
66887;BME280;53798;51.680;5.976;2022-07-11T04:39:12;102269.28;;;17.32;76.58
66887;BME280;53798;51.680;5.976;2022-07-11T04:41:39;102266.69;;;17.30;76.66
66887;BME280;53798;51.680;5.976;2022-07-11T04:44:06;102260.63;;;17.25;76.85
66887;BME280;53798;51.680;5.976;2022-07-11T04:46:34;102271.28;;;17.25;76.85
66887;BME280;53798;51.680;5.976;2022-07-11T04:49:01;102279.34;;;17.23;76.92
66887;BME280;53798;51.680;5.976;2022-07-11T04:51:28;102278.34;;;17.26;77.10
66887;BME280;53798;51.680;5.976;2022-07-11T04:53:56;102273.00;;;17.28;77.45
66887;BME280;53798;51.680;5.976;2022-07-11T04:56:23;102278.25;;;17.29;76.82
66887;BME280;53798;51.680;5.976;2022-07-11T04:58:50;102286.19;;;17.31;76.36
66887;BME280;53798;51.680;5.976;2022-07-11T05:01:18;102282.00;;;17.23;76.56
66887;BME280;53798;51.680;5.976;2022-07-11T05:03:46;102280.69;;;17.10;77.21
66887;BME280;53798;51.680;5.976;2022-07-11T05:06:13;102281.75;;;17.06;77.50
66887;BME280;53798;51.680;5.976;2022-07-11T05:08:41;102281.75;;;17.06;77.49
66887;BME280;53798;51.680;5.976;2022-07-11T05:11:08;102290.00;;;16.98;77.75
66887;BME280;53798;51.680;5.976;2022-07-11T05:13:35;102297.41;;;16.88;78.12
66887;BME280;53798;51.680;5.976;2022-07-11T05:16:04;102293.19;;;16.81;78.59
66887;BME280;53798;51.680;5.976;2022-07-11T05:18:33;102290.69;;;16.76;78.88
66887;BME280;53798;51.680;5.976;2022-07-11T05:21:00;102294.38;;;16.72;79.26
66887;BME280;53798;51.680;5.976;2022-07-11T05:23:27;102298.88;;;16.70;79.60
66887;BME280;53798;51.680;5.976;2022-07-11T05:25:54;102303.47;;;16.65;80.02
66887;BME280;53798;51.680;5.976;2022-07-11T05:28:21;102304.69;;;16.55;80.68
66887;BME280;53798;51.680;5.976;2022-07-11T05:30:48;102305.81;;;16.48;81.09
66887;BME280;53798;51.680;5.976;2022-07-11T05:33:17;102306.13;;;16.38;81.39
66887;BME280;53798;51.680;5.976;2022-07-11T05:35:45;102297.16;;;16.41;81.89
66887;BME280;53798;51.680;5.976;2022-07-11T05:38:12;102310.53;;;16.39;81.92
66887;BME280;53798;51.680;5.976;2022-07-11T05:40:39;102311.53;;;16.35;82.06
66887;BME280;53798;51.680;5.976;2022-07-11T05:43:07;102321.25;;;16.36;82.49
66887;BME280;53798;51.680;5.976;2022-07-11T05:45:34;102323.19;;;16.31;82.73
66887;BME280;53798;51.680;5.976;2022-07-11T05:48:01;102314.94;;;16.40;82.82
66887;BME280;53798;51.680;5.976;2022-07-11T05:50:29;102316.81;;;16.37;82.84
66887;BME280;53798;51.680;5.976;2022-07-11T05:52:56;102317.53;;;16.42;83.28
66887;BME280;53798;51.680;5.976;2022-07-11T05:55:24;102324.75;;;16.38;83.42
66887;BME280;53798;51.680;5.976;2022-07-11T05:57:51;102323.81;;;16.39;83.30
66887;BME280;53798;51.680;5.976;2022-07-11T06:00:19;102316.63;;;16.43;83.53
66887;BME280;53798;51.680;5.976;2022-07-11T06:02:49;102315.63;;;16.45;82.75
66887;BME280;53798;51.680;5.976;2022-07-11T06:05:17;102320.03;;;16.46;82.74
66887;BME280;53798;51.680;5.976;2022-07-11T06:07:44;102319.97;;;16.50;83.04
66887;BME280;53798;51.680;5.976;2022-07-11T06:10:30;102325.81;;;16.61;83.07
66887;BME280;53798;51.680;5.976;2022-07-11T06:12:59;102326.44;;;16.69;82.50
66887;BME280;53798;51.680;5.976;2022-07-11T06:15:26;102321.81;;;16.74;82.36
66887;BME280;53798;51.680;5.976;2022-07-11T06:17:53;102324.22;;;16.82;82.09
66887;BME280;53798;51.680;5.976;2022-07-11T06:20:20;102331.22;;;16.85;82.25
66887;BME280;53798;51.680;5.976;2022-07-11T06:22:47;102325.88;;;16.86;81.94
66887;BME280;53798;51.680;5.976;2022-07-11T06:25:14;102329.56;;;16.82;81.90
66887;BME280;53798;51.680;5.976;2022-07-11T06:27:43;102333.03;;;16.84;81.90
66887;BME280;53798;51.680;5.976;2022-07-11T06:30:18;102340.81;;;16.90;82.21
66887;BME280;53798;51.680;5.976;2022-07-11T06:32:46;102333.53;;;16.97;82.39
66887;BME280;53798;51.680;5.976;2022-07-11T06:35:13;102340.28;;;17.07;82.11
66887;BME280;53798;51.680;5.976;2022-07-11T06:37:40;102333.72;;;17.18;81.94
66887;BME280;53798;51.680;5.976;2022-07-11T06:40:08;102336.94;;;17.28;81.53
66887;BME280;53798;51.680;5.976;2022-07-11T06:42:38;102326.66;;;17.42;81.16
66887;BME280;53798;51.680;5.976;2022-07-11T06:45:07;102331.44;;;17.58;80.06
66887;BME280;53798;51.680;5.976;2022-07-11T06:47:35;102336.47;;;17.65;79.73
66887;BME280;53798;51.680;5.976;2022-07-11T06:50:03;102329.09;;;17.74;79.74
66887;BME280;53798;51.680;5.976;2022-07-11T06:52:30;102330.44;;;17.85;79.68
66887;BME280;53798;51.680;5.976;2022-07-11T06:54:57;102323.19;;;17.89;79.19
66887;BME280;53798;51.680;5.976;2022-07-11T06:57:25;102324.84;;;17.92;79.20
66887;BME280;53798;51.680;5.976;2022-07-11T06:59:52;102317.63;;;17.95;79.14
66887;BME280;53798;51.680;5.976;2022-07-11T07:02:27;102315.59;;;18.02;79.05
66887;BME280;53798;51.680;5.976;2022-07-11T07:04:57;102309.16;;;18.08;78.81
66887;BME280;53798;51.680;5.976;2022-07-11T07:07:25;102317.91;;;18.11;78.50
66887;BME280;53798;51.680;5.976;2022-07-11T07:09:54;102317.13;;;18.09;78.33
66887;BME280;53798;51.680;5.976;2022-07-11T07:12:21;102325.34;;;18.03;77.87
66887;BME280;53798;51.680;5.976;2022-07-11T07:14:49;102315.00;;;17.94;78.17
66887;BME280;53798;51.680;5.976;2022-07-11T07:17:17;102322.25;;;17.90;77.91
66887;BME280;53798;51.680;5.976;2022-07-11T07:19:44;102319.88;;;17.82;77.92
66887;BME280;53798;51.680;5.976;2022-07-11T07:22:15;102321.03;;;17.75;78.16
66887;BME280;53798;51.680;5.976;2022-07-11T07:24:43;102317.59;;;17.72;78.63
66887;BME280;53798;51.680;5.976;2022-07-11T07:27:12;102322.19;;;17.68;79.01
66887;BME280;53798;51.680;5.976;2022-07-11T07:29:49;102322.94;;;17.72;79.16
66887;BME280;53798;51.680;5.976;2022-07-11T07:32:16;102321.84;;;17.77;78.95
66887;BME280;53798;51.680;5.976;2022-07-11T07:34:43;102312.59;;;17.86;79.01
66887;BME280;53798;51.680;5.976;2022-07-11T07:37:11;102306.06;;;17.95;78.65
66887;BME280;53798;51.680;5.976;2022-07-11T07:39:38;102298.63;;;18.05;78.80
66887;BME280;53798;51.680;5.976;2022-07-11T07:42:08;102297.25;;;18.16;78.37
66887;BME280;53798;51.680;5.976;2022-07-11T07:44:35;102306.94;;;18.19;78.03
66887;BME280;53798;51.680;5.976;2022-07-11T07:47:03;102311.88;;;18.30;77.98
66887;BME280;53798;51.680;5.976;2022-07-11T07:49:30;102307.91;;;18.40;77.99
66887;BME280;53798;51.680;5.976;2022-07-11T07:51:57;102311.19;;;18.47;77.48
66887;BME280;53798;51.680;5.976;2022-07-11T07:54:24;102312.91;;;18.48;77.00
66887;BME280;53798;51.680;5.976;2022-07-11T07:56:51;102317.28;;;18.51;77.34
66887;BME280;53798;51.680;5.976;2022-07-11T07:59:18;102317.88;;;18.57;77.21
66887;BME280;53798;51.680;5.976;2022-07-11T08:01:46;102319.44;;;18.63;76.65
66887;BME280;53798;51.680;5.976;2022-07-11T08:04:15;102322.91;;;18.65;76.34
66887;BME280;53798;51.680;5.976;2022-07-11T08:06:42;102332.84;;;18.61;76.19
66887;BME280;53798;51.680;5.976;2022-07-11T08:09:10;102325.84;;;18.59;76.37
66887;BME280;53798;51.680;5.976;2022-07-11T08:11:37;102328.72;;;18.54;76.21
66887;BME280;53798;51.680;5.976;2022-07-11T08:14:04;102329.75;;;18.50;77.20
66887;BME280;53798;51.680;5.976;2022-07-11T08:16:34;102335.72;;;18.57;76.91
66887;BME280;53798;51.680;5.976;2022-07-11T08:19:04;102332.75;;;18.65;76.36
66887;BME280;53798;51.680;5.976;2022-07-11T08:21:32;102334.09;;;18.75;76.28
66887;BME280;53798;51.680;5.976;2022-07-11T08:24:01;102347.19;;;18.81;76.39
66887;BME280;53798;51.680;5.976;2022-07-11T08:26:29;102346.38;;;18.79;76.19
66887;BME280;53798;51.680;5.976;2022-07-11T08:29:04;102343.72;;;18.79;76.11
66887;BME280;53798;51.680;5.976;2022-07-11T08:31:32;102344.44;;;18.83;76.18
66887;BME280;53798;51.680;5.976;2022-07-11T08:34:02;102355.72;;;18.91;76.03
66887;BME280;53798;51.680;5.976;2022-07-11T08:36:29;102346.59;;;18.97;75.77
66887;BME280;53798;51.680;5.976;2022-07-11T08:38:58;102338.00;;;19.11;75.68
66887;BME280;53798;51.680;5.976;2022-07-11T08:41:25;102338.22;;;19.27;75.12
66887;BME280;53798;51.680;5.976;2022-07-11T08:43:53;102335.19;;;19.34;74.91
66887;BME280;53798;51.680;5.976;2022-07-11T08:46:21;102340.53;;;19.34;74.58
66887;BME280;53798;51.680;5.976;2022-07-11T08:48:49;102343.28;;;19.33;75.01
66887;BME280;53798;51.680;5.976;2022-07-11T08:51:18;102345.16;;;19.31;75.00
66887;BME280;53798;51.680;5.976;2022-07-11T08:53:47;102343.41;;;19.30;75.39
66887;BME280;53798;51.680;5.976;2022-07-11T08:56:14;102347.69;;;19.34;74.92
66887;BME280;53798;51.680;5.976;2022-07-11T08:58:47;102340.41;;;19.37;74.13
66887;BME280;53798;51.680;5.976;2022-07-11T09:01:28;102338.41;;;19.43;74.36
66887;BME280;53798;51.680;5.976;2022-07-11T09:04:00;102344.00;;;19.57;74.15
66887;BME280;53798;51.680;5.976;2022-07-11T09:06:29;102340.69;;;19.71;73.92
66887;BME280;53798;51.680;5.976;2022-07-11T09:09:00;102332.53;;;19.74;73.48
66887;BME280;53798;51.680;5.976;2022-07-11T09:11:28;102328.81;;;19.78;73.36
66887;BME280;53798;51.680;5.976;2022-07-11T09:14:24;102333.75;;;19.88;73.83
66887;BME280;53798;51.680;5.976;2022-07-11T09:19:41;102335.84;;;20.00;72.94
66887;BME280;53798;51.680;5.976;2022-07-11T09:22:10;102344.63;;;20.04;71.99
66887;BME280;53798;51.680;5.976;2022-07-11T09:25:00;102341.78;;;20.07;72.20
66887;BME280;53798;51.680;5.976;2022-07-11T09:27:52;102341.50;;;20.13;72.03
66887;BME280;53798;51.680;5.976;2022-07-11T09:33:01;102332.88;;;20.25;71.67
66887;BME280;53798;51.680;5.976;2022-07-11T09:35:44;102331.28;;;20.40;71.22
66887;BME280;53798;51.680;5.976;2022-07-11T09:38:17;102328.47;;;20.61;70.01
66887;BME280;53798;51.680;5.976;2022-07-11T09:40:45;102324.78;;;20.83;70.92
66887;BME280;53798;51.680;5.976;2022-07-11T09:43:15;102323.81;;;21.01;70.30
66887;BME280;53798;51.680;5.976;2022-07-11T09:45:51;102331.81;;;21.20;69.88
66887;BME280;53798;51.680;5.976;2022-07-11T09:48:19;102329.34;;;21.33;69.32
66887;BME280;53798;51.680;5.976;2022-07-11T09:50:57;102322.28;;;21.48;67.33
66887;BME280;53798;51.680;5.976;2022-07-11T09:53:31;102322.72;;;21.40;67.43
66887;BME280;53798;51.680;5.976;2022-07-11T09:55:59;102328.47;;;21.33;66.63
66887;BME280;53798;51.680;5.976;2022-07-11T09:58:28;102326.69;;;21.16;67.16
66887;BME280;53798;51.680;5.976;2022-07-11T10:00:56;102330.94;;;21.02;67.35
66887;BME280;53798;51.680;5.976;2022-07-11T10:03:24;102337.88;;;20.89;68.17
66887;BME280;53798;51.680;5.976;2022-07-11T10:06:12;102335.28;;;20.68;68.05
66887;BME280;53798;51.680;5.976;2022-07-11T10:08:39;102335.19;;;20.52;68.32
66887;BME280;53798;51.680;5.976;2022-07-11T10:11:07;102333.19;;;20.38;68.69
66887;BME280;53798;51.680;5.976;2022-07-11T10:13:36;102340.91;;;20.25;68.85
66887;BME280;53798;51.680;5.976;2022-07-11T10:16:10;102339.38;;;20.20;68.31
66887;BME280;53798;51.680;5.976;2022-07-11T10:27:36;102332.44;;;19.96;69.06
66887;BME280;53798;51.680;5.976;2022-07-11T10:30:54;102339.66;;;19.94;69.39
66887;BME280;53798;51.680;5.976;2022-07-11T10:33:24;102337.00;;;19.94;68.92
66887;BME280;53798;51.680;5.976;2022-07-11T10:35:51;102345.09;;;19.93;68.76
66887;BME280;53798;51.680;5.976;2022-07-11T10:38:20;102346.03;;;19.92;67.65
66887;BME280;53798;51.680;5.976;2022-07-11T10:40:56;102348.06;;;19.86;68.54
66887;BME280;53798;51.680;5.976;2022-07-11T10:43:48;102342.63;;;19.88;68.45
66887;BME280;53798;51.680;5.976;2022-07-11T10:46:19;102350.47;;;19.93;68.07
66887;BME280;53798;51.680;5.976;2022-07-11T10:49:02;102354.56;;;20.00;68.13
66887;BME280;53798;51.680;5.976;2022-07-11T10:55:03;102352.34;;;20.10;68.43
66887;BME280;53798;51.680;5.976;2022-07-11T10:58:06;102351.63;;;20.25;67.42
66887;BME280;53798;51.680;5.976;2022-07-11T11:00:38;102359.38;;;20.31;67.73
66887;BME280;53798;51.680;5.976;2022-07-11T11:03:10;102353.97;;;20.51;67.70
66887;BME280;53798;51.680;5.976;2022-07-11T11:11:03;102347.03;;;21.20;65.78
66887;BME280;53798;51.680;5.976;2022-07-11T11:13:33;102346.06;;;21.38;64.81
66887;BME280;53798;51.680;5.976;2022-07-11T11:16:21;102353.47;;;21.51;64.28
66887;BME280;53798;51.680;5.976;2022-07-11T11:18:50;102349.66;;;21.55;63.79
66887;BME280;53798;51.680;5.976;2022-07-11T11:21:19;102346.81;;;21.58;63.81
66887;BME280;53798;51.680;5.976;2022-07-11T11:26:46;102353.47;;;21.68;63.59
66887;BME280;53798;51.680;5.976;2022-07-11T11:29:23;102347.59;;;21.78;63.50
66887;BME280;53798;51.680;5.976;2022-07-11T11:31:55;102347.19;;;21.85;63.19
66887;BME280;53798;51.680;5.976;2022-07-11T11:34:24;102349.19;;;21.98;63.34
66887;BME280;53798;51.680;5.976;2022-07-11T11:36:57;102347.66;;;22.10;62.87
66887;BME280;53798;51.680;5.976;2022-07-11T11:39:32;102344.72;;;22.14;62.81
66887;BME280;53798;51.680;5.976;2022-07-11T11:42:10;102347.66;;;22.26;62.31
66887;BME280;53798;51.680;5.976;2022-07-11T11:45:00;102338.22;;;22.34;62.27
66887;BME280;53798;51.680;5.976;2022-07-11T11:47:30;102335.22;;;22.41;61.84
66887;BME280;53798;51.680;5.976;2022-07-11T11:49:58;102337.13;;;22.55;60.72
66887;BME280;53798;51.680;5.976;2022-07-11T11:52:29;102337.63;;;22.61;60.97
66887;BME280;53798;51.680;5.976;2022-07-11T11:54:57;102330.16;;;22.67;61.15
66887;BME280;53798;51.680;5.976;2022-07-11T11:57:27;102330.22;;;22.81;60.90
66887;BME280;53798;51.680;5.976;2022-07-11T11:59:56;102323.75;;;23.00;60.18
66887;BME280;53798;51.680;5.976;2022-07-11T12:02:27;102323.09;;;23.10;59.71
66887;BME280;53798;51.680;5.976;2022-07-11T12:04:58;102324.91;;;23.26;59.21
66887;BME280;53798;51.680;5.976;2022-07-11T12:07:27;102328.94;;;23.33;58.98
66887;BME280;53798;51.680;5.976;2022-07-11T12:09:57;102326.63;;;23.41;59.58
66887;BME280;53798;51.680;5.976;2022-07-11T12:12:28;102322.91;;;23.44;58.30
66887;BME280;53798;51.680;5.976;2022-07-11T12:15:32;102330.28;;;23.40;57.37
66887;BME280;53798;51.680;5.976;2022-07-11T12:18:21;102329.31;;;23.27;58.37
66887;BME280;53798;51.680;5.976;2022-07-11T12:20:48;102327.16;;;23.18;58.73
66887;BME280;53798;51.680;5.976;2022-07-11T12:23:17;102323.09;;;23.10;58.92
66887;BME280;53798;51.680;5.976;2022-07-11T12:25:49;102325.31;;;23.04;58.20
66887;BME280;53798;51.680;5.976;2022-07-11T12:28:18;102333.41;;;22.88;58.76
66887;BME280;53798;51.680;5.976;2022-07-11T12:30:45;102337.91;;;22.87;59.20
66887;BME280;53798;51.680;5.976;2022-07-11T12:33:20;102331.00;;;22.83;58.78
66887;BME280;53798;51.680;5.976;2022-07-11T12:35:58;102328.47;;;22.80;59.34
66887;BME280;53798;51.680;5.976;2022-07-11T12:38:48;102335.59;;;22.81;59.30
66887;BME280;53798;51.680;5.976;2022-07-11T12:41:19;102333.41;;;22.88;58.46
66887;BME280;53798;51.680;5.976;2022-07-11T12:43:48;102326.03;;;22.91;58.97
66887;BME280;53798;51.680;5.976;2022-07-11T12:46:37;102320.44;;;22.94;57.97
66887;BME280;53798;51.680;5.976;2022-07-11T12:49:08;102321.22;;;22.96;57.96
66887;BME280;53798;51.680;5.976;2022-07-11T12:51:39;102315.97;;;22.95;58.08
66887;BME280;53798;51.680;5.976;2022-07-11T12:54:10;102319.16;;;23.02;58.51
66887;BME280;53798;51.680;5.976;2022-07-11T12:56:40;102316.69;;;23.13;58.19
66887;BME280;53798;51.680;5.976;2022-07-11T12:59:21;102312.41;;;23.25;57.51
66887;BME280;53798;51.680;5.976;2022-07-11T13:01:54;102311.09;;;23.16;57.97
66887;BME280;53798;51.680;5.976;2022-07-11T13:04:46;102310.41;;;23.13;57.26
66887;BME280;53798;51.680;5.976;2022-07-11T13:07:18;102318.25;;;23.01;57.51
66887;BME280;53798;51.680;5.976;2022-07-11T13:10:19;102312.22;;;22.98;58.35
66887;BME280;53798;51.680;5.976;2022-07-11T13:12:50;102319.19;;;22.86;58.62
66887;BME280;53798;51.680;5.976;2022-07-11T13:15:20;102322.34;;;22.62;58.88
66887;BME280;53798;51.680;5.976;2022-07-11T13:17:50;102318.91;;;22.44;59.34
66887;BME280;53798;51.680;5.976;2022-07-11T13:20:23;102317.94;;;22.29;59.09
66887;BME280;53798;51.680;5.976;2022-07-11T13:22:54;102327.47;;;22.18;59.91
66887;BME280;53798;51.680;5.976;2022-07-11T13:25:22;102330.78;;;22.24;60.15
66887;BME280;53798;51.680;5.976;2022-07-11T13:27:51;102325.03;;;22.30;60.09
66887;BME280;53798;51.680;5.976;2022-07-11T13:30:21;102321.84;;;22.55;59.87